Terminal Aerodrome Forecast
Issued by NWS New Orleans/Baton Rouge, LA

Home | Current Version | Previous Version | Text Only | Print | Product List | Glossary On
Versions: 1 2 3 4 5 6 7 8 9 10 11 12 13 14 15 16 17 18 19 20 21 22 23 24 25 26
000
FTUS44 KLIX 061730
TAFNEW
TAF
KNEW 061730Z 0618/0718 19006KT P6SM FEW026 BKN035
     FM062100 17007KT P6SM VCTS SCT030CB BKN150
     FM070100 18004KT P6SM BKN120
     FM071500 18006KT P6SM SCT250=

USA.gov is the U.S. government's official web portal to all federal, state and local government web resources and services.